SJNB weather

Ubaru Airport
Pacaraima, Roraima, Brazil

Public forecast

Using degrees Celsius for public forecast. Weather courtesy of forecast.io.

Closest aviation weather report (METAR) to Ubaru Airport

Report is more than 6 hours old.

Closest report is Santa Elena de Uairen Airport, 21.1 nm (39.0 km) W. Retrieved 2018/10/29 02:00 UTC (2 years ago):

SVSE 290200Z /////KT 9999 SCT017 26/// Q1013

Closest aviation forecast (TAF) to Ubaru Airport

Forecast is more than 12 hours old.

Closest forecast is Kato Airport, 58.7 nm (108.8 km) E. Retrieved 2020/05/14 12:13 UTC (3 months ago):

TAF SYKT 141113Z 1412/1423 VRB08KT 4000 TSRA RA FEW013CB SCT016 OVC030